Time;durP1;ratioP1;P1;durP2;ratioP2;P2;SDS_P1;SDS_P2;PMS_P1;PMS_P2;Temp;Humidity;BMP_temperature;BMP_pressure;BME280_temperature;BME280_humidity;BME280_pressure;Samples;Min_cycle;Max_cycle;Signal;HPM_P1;HPM_P2
2021/09/13 00:01:31;;;;;;;8.82;6.95;;;11.60;99.90;;;;;;4997371;28;20060;-87
2021/09/13 00:03:58;;;;;;;10.07;6.28;;;11.60;99.90;;;;;;4996535;28;20057;-87
2021/09/13 00:06:24;;;;;;;7.30;6.60;;;11.60;99.90;;;;;;4996063;28;20053;-88
2021/09/13 00:08:51;;;;;;;7.75;6.57;;;11.70;99.90;;;;;;4992259;28;20046;-87
2021/09/13 00:11:18;;;;;;;9.30;7.10;;;11.70;99.90;;;;;;4993148;28;20062;-87
2021/09/13 00:13:45;;;;;;;11.63;7.90;;;11.70;99.90;;;;;;4993221;28;20050;-87
2021/09/13 00:16:11;;;;;;;12.07;8.52;;;11.70;99.90;;;;;;4993393;28;20073;-87
2021/09/13 00:18:38;;;;;;;12.32;8.27;;;11.70;99.90;;;;;;4993490;28;20057;-86
2021/09/13 00:21:05;;;;;;;8.63;7.70;;;11.70;99.90;;;;;;5001676;28;20085;-87
2021/09/13 00:23:32;;;;;;;9.55;7.32;;;11.90;99.90;;;;;;5006124;28;20061;-87
2021/09/13 00:25:58;;;;;;;9.73;7.30;;;12.00;99.90;;;;;;4993339;28;20056;-87
2021/09/13 00:28:25;;;;;;;11.38;7.20;;;12.00;99.90;;;;;;4993019;28;20495;-87
2021/09/13 00:30:52;;;;;;;8.95;6.93;;;12.00;99.90;;;;;;4992913;28;20495;-87
2021/09/13 00:33:18;;;;;;;8.70;6.70;;;12.10;99.90;;;;;;4993008;28;20056;-87
2021/09/13 00:35:45;;;;;;;9.20;7.18;;;12.10;99.90;;;;;;4992898;28;20088;-86
2021/09/13 00:38:12;;;;;;;9.10;6.75;;;12.20;99.90;;;;;;4992990;28;20046;-87
2021/09/13 00:40:39;;;;;;;17.42;8.65;;;12.20;99.90;;;;;;4992981;28;20077;-87
2021/09/13 00:43:05;;;;;;;12.35;7.75;;;12.20;99.90;;;;;;4992996;28;20051;-87
2021/09/13 00:45:32;;;;;;;10.13;6.88;;;12.20;99.90;;;;;;4993762;28;20060;-87
2021/09/13 00:47:59;;;;;;;14.23;7.65;;;12.30;99.90;;;;;;4992685;28;20156;-87
2021/09/13 00:50:26;;;;;;;8.55;6.18;;;12.30;99.90;;;;;;4992833;28;20410;-88
2021/09/13 00:52:54;;;;;;;9.60;6.80;;;12.20;99.90;;;;;;4992581;28;20046;-87
2021/09/13 00:55:22;;;;;;;7.68;6.40;;;12.20;99.90;;;;;;4992912;28;20145;-87
2021/09/13 00:57:50;;;;;;;9.90;6.93;;;12.20;99.90;;;;;;4992778;28;20073;-87
2021/09/13 01:00:18;;;;;;;10.80;7.18;;;12.20;99.90;;;;;;4992618;28;20054;-87
2021/09/13 01:02:45;;;;;;;12.82;6.38;;;12.20;99.90;;;;;;4992629;28;20410;-86
2021/09/13 01:05:12;;;;;;;13.93;6.80;;;12.20;99.90;;;;;;4992396;28;20050;-87
2021/09/13 01:07:39;;;;;;;7.75;6.65;;;12.20;99.90;;;;;;4992447;28;20189;-87
2021/09/13 01:10:07;;;;;;;8.95;6.28;;;12.10;99.90;;;;;;4992796;28;20443;-87
2021/09/13 01:12:34;;;;;;;12.77;6.68;;;12.10;99.90;;;;;;4992665;28;20130;-87
2021/09/13 01:15:02;;;;;;;12.13;6.47;;;12.00;99.90;;;;;;4992957;28;20115;-87
2021/09/13 01:17:29;;;;;;;10.60;7.00;;;11.90;99.90;;;;;;4992437;28;20078;-87
2021/09/13 01:19:56;;;;;;;9.05;5.95;;;11.90;99.90;;;;;;4994629;28;20431;-87
2021/09/13 01:22:26;;;;;;;9.35;6.30;;;11.90;99.90;;;;;;4995139;28;20057;-87
2021/09/13 01:24:53;;;;;;;9.88;6.50;;;11.80;99.90;;;;;;4995702;28;20064;-87
2021/09/13 01:27:20;;;;;;;11.48;6.70;;;11.70;99.90;;;;;;4996112;28;20050;-87
2021/09/13 01:29:46;;;;;;;9.32;5.85;;;11.80;99.90;;;;;;4995616;28;20056;-87
2021/09/13 01:32:13;;;;;;;8.23;6.43;;;11.70;99.90;;;;;;4997000;28;20096;-87
2021/09/13 01:34:40;;;;;;;8.48;6.88;;;11.70;99.90;;;;;;4995738;28;20049;-87
2021/09/13 01:37:07;;;;;;;16.23;5.90;;;11.50;99.90;;;;;;4996019;28;20431;-87
2021/09/13 01:39:34;;;;;;;14.65;6.68;;;11.50;99.90;;;;;;5004095;28;20046;-88
2021/09/13 01:42:00;;;;;;;8.65;6.85;;;11.50;99.90;;;;;;5008897;28;20133;-86
2021/09/13 01:44:27;;;;;;;12.30;6.18;;;11.50;99.90;;;;;;4997620;28;20042;-87
2021/09/13 01:46:55;;;;;;;8.23;6.57;;;11.30;99.90;;;;;;4996155;28;20469;-87
2021/09/13 01:49:21;;;;;;;15.90;6.25;;;11.30;99.90;;;;;;4995540;28;20077;-87
2021/09/13 01:51:48;;;;;;;13.07;6.78;;;11.20;99.90;;;;;;4995679;28;20086;-87
2021/09/13 01:54:15;;;;;;;7.88;6.20;;;11.30;99.90;;;;;;4995566;28;20054;-87
2021/09/13 01:56:42;;;;;;;10.65;6.38;;;11.30;99.90;;;;;;4994965;28;20141;-86
2021/09/13 01:59:09;;;;;;;9.98;6.70;;;11.20;99.90;;;;;;4995440;28;20054;-87
2021/09/13 02:01:35;;;;;;;11.98;7.03;;;11.10;99.90;;;;;;4995107;28;20141;-87
2021/09/13 02:04:03;;;;;;;9.98;6.70;;;11.00;99.90;;;;;;4995194;28;20054;-87
2021/09/13 02:06:31;;;;;;;7.55;6.35;;;10.90;99.90;;;;;;4995446;28;20050;-87
2021/09/13 02:08:58;;;;;;;7.72;5.93;;;10.80;99.90;;;;;;4998579;28;20057;-87
2021/09/13 02:11:25;;;;;;;8.88;6.22;;;10.80;99.90;;;;;;4998448;28;20052;-87
2021/09/13 02:13:52;;;;;;;11.90;6.20;;;10.80;99.90;;;;;;4998696;28;20505;-86
2021/09/13 02:16:18;;;;;;;7.97;6.65;;;10.70;99.90;;;;;;4998532;28;20054;-87
2021/09/13 02:18:45;;;;;;;11.15;6.95;;;10.60;99.90;;;;;;5015503;28;20049;-87
2021/09/13 02:21:12;;;;;;;11.55;7.65;;;10.60;99.90;;;;;;4998609;28;20113;-87
2021/09/13 02:23:39;;;;;;;8.63;6.68;;;10.50;99.90;;;;;;4998486;28;20045;-87
2021/09/13 02:26:06;;;;;;;8.40;6.43;;;10.50;99.90;;;;;;4998258;28;20052;-88
2021/09/13 02:28:32;;;;;;;6.65;5.95;;;10.40;99.90;;;;;;5015868;28;20046;-87
2021/09/13 02:30:59;;;;;;;11.30;7.05;;;10.40;99.90;;;;;;4997134;28;20050;-87
2021/09/13 02:33:26;;;;;;;10.95;7.25;;;10.50;99.90;;;;;;4998320;28;20056;-87
2021/09/13 02:35:53;;;;;;;13.98;7.82;;;10.50;99.90;;;;;;4997927;28;20053;-87
2021/09/13 02:38:20;;;;;;;14.35;7.82;;;10.50;99.90;;;;;;4997918;28;20050;-87
2021/09/13 02:40:46;;;;;;;15.57;8.70;;;10.50;99.90;;;;;;4998153;28;20510;-87
2021/09/13 02:43:13;;;;;;;11.38;8.23;;;10.60;99.90;;;;;;4997949;28;20076;-87
2021/09/13 02:45:40;;;;;;;11.30;7.80;;;10.50;99.90;;;;;;4997665;28;20060;-88
2021/09/13 02:48:06;;;;;;;14.43;8.25;;;10.50;99.90;;;;;;4997865;28;20045;-87
2021/09/13 02:50:33;;;;;;;15.93;9.20;;;10.60;99.90;;;;;;4997818;28;20045;-86
2021/09/13 02:53:00;;;;;;;11.70;7.60;;;10.70;99.90;;;;;;5014769;28;20503;-87
2021/09/13 02:55:27;;;;;;;12.50;8.07;;;10.80;99.90;;;;;;4997578;28;20152;-87
2021/09/13 02:57:54;;;;;;;12.38;8.23;;;10.80;99.90;;;;;;5004396;28;20060;-87
2021/09/13 03:00:21;;;;;;;17.88;9.13;;;10.80;99.90;;;;;;5013776;28;20085;-87
2021/09/13 03:02:48;;;;;;;14.30;8.18;;;10.80;99.90;;;;;;5016330;28;20129;-87
2021/09/13 03:05:16;;;;;;;15.52;8.60;;;10.80;99.90;;;;;;4997283;28;20077;-87
2021/09/13 03:07:43;;;;;;;9.40;7.28;;;10.70;99.90;;;;;;4997223;28;20141;-87
2021/09/13 03:10:10;;;;;;;11.27;7.47;;;10.70;99.90;;;;;;4997358;28;20054;-87
2021/09/13 03:12:37;;;;;;;9.75;7.13;;;10.60;99.90;;;;;;4997574;28;20069;-87
2021/09/13 03:15:06;;;;;;;12.68;8.02;;;10.60;99.90;;;;;;4997132;28;20056;-87
2021/09/13 03:17:33;;;;;;;13.38;8.18;;;10.60;99.90;;;;;;5014818;28;20049;-87
2021/09/13 03:20:01;;;;;;;14.45;8.38;;;10.50;99.90;;;;;;5014610;28;20048;-87
2021/09/13 03:22:28;;;;;;;13.18;7.82;;;10.40;99.90;;;;;;4996982;28;20057;-87
2021/09/13 03:24:54;;;;;;;11.43;8.18;;;10.40;99.90;;;;;;5013936;28;20056;-87
2021/09/13 03:27:21;;;;;;;10.77;6.78;;;10.40;99.90;;;;;;4996898;28;20056;-87
2021/09/13 03:29:48;;;;;;;11.00;7.53;;;10.30;99.90;;;;;;4996969;28;20057;-87
2021/09/13 03:32:15;;;;;;;10.77;7.43;;;10.30;99.90;;;;;;4997120;28;20128;-87
2021/09/13 03:34:42;;;;;;;10.23;6.18;;;10.20;99.90;;;;;;5014135;28;20474;-87
2021/09/13 03:37:08;;;;;;;12.63;7.28;;;10.20;99.90;;;;;;5014213;28;20493;-87
2021/09/13 03:39:37;;;;;;;13.02;7.30;;;10.20;99.90;;;;;;4996884;28;20137;-87
2021/09/13 03:42:04;;;;;;;8.27;6.50;;;10.20;99.90;;;;;;5013963;28;20060;-87
2021/09/13 03:44:31;;;;;;;11.90;7.07;;;10.10;99.90;;;;;;5014063;28;20052;-87
2021/09/13 03:46:58;;;;;;;12.35;6.80;;;10.20;99.90;;;;;;4996825;28;20050;-87
2021/09/13 03:49:25;;;;;;;8.88;6.95;;;10.10;99.90;;;;;;4996767;28;20045;-87
2021/09/13 03:51:52;;;;;;;11.38;6.70;;;10.00;99.90;;;;;;4996731;28;20137;-86
2021/09/13 03:54:18;;;;;;;8.88;7.03;;;10.00;99.90;;;;;;4996881;28;20054;-87
2021/09/13 03:56:45;;;;;;;12.50;6.47;;;10.00;99.90;;;;;;4996566;28;20058;-87
2021/09/13 03:59:13;;;;;;;10.77;6.47;;;10.00;99.90;;;;;;4996703;28;20042;-87
2021/09/13 04:01:39;;;;;;;13.07;7.43;;;10.00;99.90;;;;;;4996388;28;20050;-87
2021/09/13 04:04:08;;;;;;;9.57;6.18;;;9.90;99.90;;;;;;5013927;28;20046;-87
2021/09/13 04:11:54;;;;;;;15.25;9.38;;;10.20;99.90;;;;;;5013538;28;20054;-87
2021/09/13 04:14:23;;;;;;;14.65;8.93;;;10.30;99.90;;;;;;5013987;28;20049;-87
2021/09/13 04:16:51;;;;;;;12.77;8.45;;;10.40;99.90;;;;;;5022989;28;20101;-88
2021/09/13 04:19:19;;;;;;;15.50;8.27;;;10.50;99.90;;;;;;5008088;28;20136;-87
2021/09/13 04:21:46;;;;;;;14.98;7.15;;;10.60;99.90;;;;;;5014084;28;20457;-87
2021/09/13 04:24:14;;;;;;;16.33;8.80;;;10.70;99.90;;;;;;4996252;28;20053;-87
2021/09/13 04:26:40;;;;;;;19.95;8.50;;;10.80;99.90;;;;;;4995953;28;20054;-87
2021/09/13 04:29:09;;;;;;;12.00;7.85;;;10.70;99.90;;;;;;5013806;28;20125;-87
2021/09/13 04:31:36;;;;;;;10.23;7.50;;;10.70;99.90;;;;;;4996392;28;20054;-87
2021/09/13 04:34:03;;;;;;;10.40;7.03;;;10.70;99.90;;;;;;4996621;28;20046;-87
2021/09/13 04:36:30;;;;;;;12.85;7.78;;;10.70;99.90;;;;;;4996042;28;20367;-87
2021/09/13 04:38:57;;;;;;;10.98;7.32;;;10.70;99.90;;;;;;4995941;28;20056;-87
2021/09/13 04:41:24;;;;;;;11.82;7.40;;;10.60;99.90;;;;;;5013288;28;20148;-87
2021/09/13 04:43:50;;;;;;;9.30;6.47;;;10.50;99.90;;;;;;4996019;28;20076;-87
2021/09/13 04:46:17;;;;;;;8.00;6.40;;;10.40;99.90;;;;;;5013328;28;20052;-87
2021/09/13 04:48:44;;;;;;;14.85;7.70;;;10.40;99.90;;;;;;5013054;28;20062;-87
2021/09/13 04:51:11;;;;;;;14.80;7.57;;;10.40;99.90;;;;;;4996142;28;20507;-88
2021/09/13 04:53:38;;;;;;;15.73;8.43;;;10.40;99.90;;;;;;4996611;28;20045;-87
2021/09/13 04:56:05;;;;;;;15.60;8.48;;;10.40;99.90;;;;;;4999439;28;20046;-88
2021/09/13 04:58:31;;;;;;;13.82;8.45;;;10.40;99.90;;;;;;4999504;28;20056;-87
2021/09/13 05:00:58;;;;;;;11.10;7.97;;;10.50;99.90;;;;;;4999527;28;20052;-88
2021/09/13 05:03:25;;;;;;;13.55;7.13;;;10.50;99.90;;;;;;4999683;28;20054;-87
2021/09/13 05:05:54;;;;;;;10.65;7.47;;;10.50;99.90;;;;;;4999276;28;20042;-87
2021/09/13 05:08:21;;;;;;;10.57;7.65;;;10.50;99.90;;;;;;5016620;28;20054;-87
2021/09/13 05:10:48;;;;;;;13.55;7.75;;;10.40;99.90;;;;;;5016364;28;20081;-88
2021/09/13 05:13:14;;;;;;;13.68;8.48;;;10.40;99.90;;;;;;5016572;28;20418;-87
2021/09/13 05:15:41;;;;;;;15.90;8.75;;;10.30;99.90;;;;;;5016655;28;20046;-87
2021/09/13 05:18:08;;;;;;;11.98;8.63;;;10.40;99.90;;;;;;4999692;28;20084;-87
2021/09/13 05:20:34;;;;;;;15.73;8.93;;;10.30;99.90;;;;;;5016928;28;20049;-87
2021/09/13 05:23:02;;;;;;;15.85;9.43;;;10.40;99.90;;;;;;4999493;28;20834;-87
2021/09/13 05:25:29;;;;;;;13.52;9.18;;;10.50;99.90;;;;;;4999811;28;20134;-87
2021/09/13 05:27:56;;;;;;;15.70;8.95;;;10.50;99.90;;;;;;5017143;28;20056;-87
2021/09/13 05:30:25;;;;;;;23.02;11.20;;;10.60;99.90;;;;;;5000228;28;20053;-88
2021/09/13 05:32:51;;;;;;;24.38;11.18;;;10.70;99.90;;;;;;5000268;28;20078;-88
2021/09/13 05:35:18;;;;;;;60.85;30.00;;;10.70;99.90;;;;;;5026625;28;20034;-88
2021/09/13 05:37:45;;;;;;;34.33;19.13;;;10.80;99.90;;;;;;5030509;28;20144;-88
2021/09/13 05:40:13;;;;;;;33.75;17.67;;;10.80;99.90;;;;;;5000458;28;20053;-88
2021/09/13 05:42:40;;;;;;;25.30;13.05;;;10.90;99.90;;;;;;4999825;28;20513;-88
2021/09/13 05:45:07;;;;;;;22.85;10.98;;;11.00;99.90;;;;;;5016763;28;20478;-88
2021/09/13 05:47:34;;;;;;;19.08;9.75;;;11.00;99.90;;;;;;5035464;28;20071;-88
2021/09/13 05:50:00;;;;;;;12.02;9.32;;;11.00;99.90;;;;;;5018247;28;20049;-88
2021/09/13 05:52:29;;;;;;;23.33;15.15;;;11.10;99.90;;;;;;5051355;28;20095;-87
2021/09/13 05:54:56;;;;;;;28.20;14.68;;;11.10;99.90;;;;;;5018347;28;20136;-87
2021/09/13 05:57:22;;;;;;;28.80;15.23;;;11.30;99.90;;;;;;5036057;28;20140;-88
2021/09/13 05:59:49;;;;;;;19.58;10.10;;;11.50;99.90;;;;;;5018596;28;20052;-88
2021/09/13 06:02:17;;;;;;;18.42;10.55;;;11.60;99.90;;;;;;5018661;28;20057;-88
2021/09/13 06:04:44;;;;;;;22.10;15.85;;;11.80;99.90;;;;;;5035611;28;20056;-88
2021/09/13 06:07:11;;;;;;;16.65;8.02;;;12.00;99.90;;;;;;5034812;28;20061;-87
2021/09/13 06:09:39;;;;;;;12.45;6.65;;;12.10;99.90;;;;;;5020901;28;20072;-88
2021/09/13 06:12:06;;;;;;;11.38;7.15;;;12.30;99.90;;;;;;5051403;28;20536;-88
2021/09/13 06:14:32;;;;;;;12.32;7.50;;;12.40;99.90;;;;;;5018315;28;20064;-88
2021/09/13 06:16:59;;;;;;;15.98;9.85;;;12.70;99.90;;;;;;5018035;28;20124;-87
2021/09/13 06:19:50;;;;;;;;;;;;;;;;;;;;;
2021/09/13 06:22:17;;;;;;;16.92;6.13;;;13.30;99.90;;;;;;5038020;28;20141;-87
2021/09/13 06:24:44;;;;;;;16.25;6.10;;;13.40;99.90;;;;;;5018216;28;20060;-87
2021/09/13 06:27:10;;;;;;;28.58;6.65;;;13.60;99.90;;;;;;5018262;28;20451;-87
2021/09/13 06:29:37;;;;;;;18.23;7.82;;;13.80;99.90;;;;;;5018160;28;20487;-88
2021/09/13 06:32:04;;;;;;;24.42;9.20;;;14.10;99.90;;;;;;5018290;28;20075;-86
2021/09/13 06:34:31;;;;;;;32.78;11.18;;;14.30;99.90;;;;;;5017971;28;20053;-87
2021/09/13 06:36:57;;;;;;;18.08;5.82;;;14.60;99.90;;;;;;5017705;28;20140;-87
2021/09/13 06:39:24;;;;;;;11.98;4.55;;;14.80;99.90;;;;;;5051044;28;20053;-88
2021/09/13 06:41:51;;;;;;;7.78;4.47;;;14.90;99.90;;;;;;5017634;28;20111;-88
2021/09/13 06:44:21;;;;;;;7.07;5.10;;;14.80;99.90;;;;;;5035201;28;20129;-87
2021/09/13 06:47:00;;;;;;;11.07;5.70;;;14.70;99.90;;;;;;5017296;28;20049;-87
2021/09/13 06:49:28;;;;;;;21.90;5.68;;;14.90;99.90;;;;;;5017559;28;20050;-87
2021/09/13 06:51:54;;;;;;;8.98;5.28;;;15.20;99.90;;;;;;5018051;28;20144;-87
2021/09/13 06:54:21;;;;;;;8.23;4.13;;;15.30;99.90;;;;;;5033364;28;20076;-88
2021/09/13 06:56:48;;;;;;;9.25;4.55;;;15.40;99.90;;;;;;5057833;28;20082;-87
2021/09/13 06:59:15;;;;;;;7.68;4.10;;;15.50;99.90;;;;;;5016737;28;20053;-86
2021/09/13 07:01:42;;;;;;;4.63;3.72;;;15.70;99.90;;;;;;5016926;28;20042;-87
2021/09/13 07:04:09;;;;;;;6.13;4.45;;;16.00;99.90;;;;;;5015755;28;20061;-87
2021/09/13 07:06:36;;;;;;;4.80;4.40;;;16.30;99.90;;;;;;5034024;28;20132;-87
2021/09/13 07:09:03;;;;;;;4.50;4.10;;;16.50;99.90;;;;;;5016745;28;20045;-87
2021/09/13 07:11:30;;;;;;;7.90;4.28;;;16.60;99.90;;;;;;5033928;28;20057;-87
2021/09/13 07:13:57;;;;;;;8.32;4.60;;;16.70;99.90;;;;;;5049290;28;20095;-87
2021/09/13 07:16:24;;;;;;;14.77;6.20;;;16.60;99.90;;;;;;5033374;28;20136;-88
2021/09/13 07:18:51;;;;;;;22.95;5.53;;;16.70;99.90;;;;;;5016571;28;20478;-86
2021/09/13 07:21:17;;;;;;;15.27;5.93;;;17.10;99.90;;;;;;5034033;28;20046;-87
2021/09/13 07:23:44;;;;;;;17.73;5.93;;;17.30;99.90;;;;;;5033808;28;20063;-87
2021/09/13 07:26:11;;;;;;;16.20;4.72;;;17.90;99.90;;;;;;5016313;28;20077;-87
2021/09/13 07:28:38;;;;;;;15.10;5.03;;;18.10;99.90;;;;;;5049577;28;20061;-89
2021/09/13 07:31:05;;;;;;;11.63;4.53;;;18.40;99.90;;;;;;5049100;28;20050;-87
2021/09/13 07:33:31;;;;;;;12.50;4.80;;;18.30;99.90;;;;;;5016542;28;20050;-87
2021/09/13 07:35:58;;;;;;;10.18;4.57;;;18.70;99.90;;;;;;5033932;28;20498;-88
2021/09/13 07:38:25;;;;;;;11.50;4.30;;;18.80;99.90;;;;;;5016416;28;20063;-88
2021/09/13 07:40:52;;;;;;;13.60;5.28;;;19.00;99.90;;;;;;5015871;28;20049;-87
2021/09/13 07:43:19;;;;;;;21.15;5.40;;;19.10;99.90;;;;;;5016114;28;20052;-87
2021/09/13 07:45:46;;;;;;;14.32;4.72;;;19.50;99.90;;;;;;5048853;28;20056;-87
2021/09/13 07:48:13;;;;;;;11.88;4.10;;;20.10;99.90;;;;;;5016218;28;20478;-88
2021/09/13 07:50:39;;;;;;;8.75;4.25;;;20.20;99.90;;;;;;5033494;28;20071;-88
2021/09/13 07:53:06;;;;;;;13.95;4.82;;;20.70;99.90;;;;;;5015899;28;20128;-88
2021/09/13 07:55:33;;;;;;;7.90;4.30;;;20.70;99.90;;;;;;5015708;28;20433;-88
2021/09/13 07:58:00;;;;;;;9.80;4.18;;;21.10;99.90;;;;;;5033382;28;20045;-87
2021/09/13 08:00:39;;;;;;;8.55;3.92;;;21.80;99.90;;;;;;5017628;28;20045;-88
2021/09/13 08:03:06;;;;;;;9.45;3.42;;;22.30;99.90;;;;;;5015994;28;20053;-87
2021/09/13 08:05:33;;;;;;;11.07;3.75;;;22.90;99.90;;;;;;5033260;28;20051;-88
2021/09/13 08:08:00;;;;;;;18.58;4.85;;;23.30;99.90;;;;;;5015627;28;20059;-87
2021/09/13 08:10:27;;;;;;;13.20;4.45;;;23.20;99.90;;;;;;5017783;28;20050;-88
2021/09/13 08:12:54;;;;;;;7.65;4.18;;;23.30;99.90;;;;;;5045724;28;20105;-86
2021/09/13 08:15:23;;;;;;;7.57;3.67;;;23.30;99.90;;;;;;5024735;28;20439;-84
2021/09/13 08:17:50;;;;;;;6.88;4.03;;;23.30;99.90;;;;;;5048552;28;20494;-86
2021/09/13 08:20:18;;;;;;;19.13;4.82;;;23.40;99.90;;;;;;5015835;28;20132;-85
2021/09/13 08:22:46;;;;;;;8.00;4.38;;;23.70;99.90;;;;;;5048214;28;20140;-87
2021/09/13 08:25:13;;;;;;;6.68;4.72;;;23.60;99.90;;;;;;5015302;28;20145;-85
2021/09/13 08:27:40;;;;;;;7.80;4.72;;;24.10;99.90;;;;;;5015573;28;20104;-87
2021/09/13 08:30:07;;;;;;;6.30;3.80;;;24.20;99.90;;;;;;5051392;28;20447;-87
2021/09/13 08:32:34;;;;;;;6.65;4.28;;;24.20;99.90;;;;;;5019606;28;20045;-87
2021/09/13 08:35:01;;;;;;;8.02;4.90;;;24.50;99.90;;;;;;5036855;28;20075;-86
2021/09/13 08:37:28;;;;;;;7.80;4.43;;;25.40;99.90;;;;;;5019727;28;20076;-85
2021/09/13 08:39:55;;;;;;;6.97;4.40;;;25.60;99.90;;;;;;5019392;28;20060;-85
2021/09/13 08:42:22;;;;;;;9.13;4.90;;;25.60;99.90;;;;;;5019483;28;20410;-86
2021/09/13 08:44:52;;;;;;;6.18;4.32;;;25.10;99.90;;;;;;5019312;28;20045;-85
2021/09/13 08:47:25;;;;;;;9.30;5.15;;;25.10;99.90;;;;;;5019448;28;20402;-85
2021/09/13 08:49:57;;;;;;;9.23;5.20;;;25.50;99.90;;;;;;5052194;28;20075;-86
2021/09/13 08:52:23;;;;;;;7.82;5.13;;;26.40;99.90;;;;;;5019543;28;20144;-85
2021/09/13 08:54:50;;;;;;;10.73;4.68;;;27.60;97.60;;;;;;5019346;28;20053;-86
2021/09/13 08:57:19;;;;;;;4.10;3.70;;;29.10;93.80;;;;;;5019507;28;20147;-85
2021/09/13 08:59:47;;;;;;;8.57;4.20;;;29.40;91.20;;;;;;5036872;28;20080;-86
2021/09/13 09:02:15;;;;;;;12.65;5.85;;;30.90;85.30;;;;;;5019617;28;20418;-86
2021/09/13 09:04:55;;;;;;;8.10;5.30;;;30.30;79.90;;;;;;5020863;28;20052;-86
2021/09/13 09:07:23;;;;;;;9.18;4.60;;;31.00;78.40;;;;;;5018778;28;20054;-86
2021/09/13 09:10:26;;;;;;;9.23;5.30;;;31.70;75.90;;;;;;5019302;28;20139;-86
2021/09/13 09:13:01;;;;;;;4.68;3.70;;;31.60;75.30;;;;;;4975228;28;20139;-85
2021/09/13 09:15:30;;;;;;;6.18;4.00;;;31.40;75.70;;;;;;5011180;28;20060;-85
2021/09/13 09:17:59;;;;;;;4.22;3.58;;;30.40;74.50;;;;;;5020423;28;20077;-85
2021/09/13 09:20:27;;;;;;;5.97;3.72;;;30.40;76.00;;;;;;5020470;28;20136;-86
2021/09/13 09:23:02;;;;;;;8.63;4.13;;;29.40;76.80;;;;;;5020691;28;20075;-85
2021/09/13 09:25:33;;;;;;;7.30;3.92;;;29.40;77.80;;;;;;5022514;28;20052;-84
2021/09/13 09:28:19;;;;;;;4.60;3.78;;;29.40;78.80;;;;;;5021979;28;20053;-84
2021/09/13 09:30:49;;;;;;;13.85;4.13;;;30.50;77.10;;;;;;5061529;28;20093;-85
2021/09/13 09:33:22;;;;;;;5.22;3.65;;;30.40;76.80;;;;;;5037307;28;20060;-86
2021/09/13 09:35:51;;;;;;;5.97;3.50;;;30.40;75.20;;;;;;5037722;28;20405;-86
2021/09/13 09:38:37;;;;;;;5.15;3.60;;;30.00;77.10;;;;;;5019230;28;20505;-85
2021/09/13 09:41:08;;;;;;;6.15;3.20;;;29.50;76.70;;;;;;5018613;28;20051;-86
2021/09/13 09:44:01;;;;;;;6.82;3.78;;;28.60;80.30;;;;;;5018352;28;20124;-85
2021/09/13 09:46:38;;;;;;;7.90;3.13;;;30.40;76.90;;;;;;5018594;28;20053;-86
2021/09/13 09:49:08;;;;;;;6.40;3.53;;;32.30;71.60;;;;;;5017611;28;20884;-85
2021/09/13 09:51:37;;;;;;;5.35;3.50;;;32.70;71.00;;;;;;5018514;28;20128;-86
2021/09/13 09:54:15;;;;;;;4.50;3.80;;;31.50;71.80;;;;;;5018579;28;20045;-86
2021/09/13 09:56:46;;;;;;;5.10;3.28;;;30.60;72.20;;;;;;5017953;28;20049;-87
2021/09/13 09:59:13;;;;;;;3.67;2.90;;;30.90;73.10;;;;;;5018448;28;20053;-86
2021/09/13 10:01:46;;;;;;;4.68;2.70;;;30.80;73.70;;;;;;5018122;28;20140;-87
2021/09/13 10:04:16;;;;;;;4.22;3.17;;;29.90;75.60;;;;;;5018343;28;20060;-87
2021/09/13 10:06:45;;;;;;;3.40;3.00;;;31.90;72.60;;;;;;5017815;28;20045;-86
2021/09/13 10:09:13;;;;;;;4.28;2.65;;;31.20;72.30;;;;;;5017759;28;20041;-85
2021/09/13 10:11:40;;;;;;;3.08;2.80;;;31.40;72.90;;;;;;5035213;28;20092;-86
2021/09/13 10:14:09;;;;;;;3.65;3.22;;;32.40;68.00;;;;;;5034983;28;20053;-84
2021/09/13 10:16:38;;;;;;;6.65;3.00;;;29.30;72.90;;;;;;5017084;28;20056;-85
2021/09/13 10:19:05;;;;;;;2.90;2.70;;;29.00;74.30;;;;;;5017486;28;20529;-85
2021/09/13 10:21:33;;;;;;;4.70;3.65;;;28.50;76.60;;;;;;5017413;28;20041;-84
2021/09/13 10:24:02;;;;;;;6.50;3.33;;;28.50;76.40;;;;;;5017483;28;20053;-84
2021/09/13 10:26:29;;;;;;;3.63;2.80;;;28.30;78.20;;;;;;5017649;28;20073;-86
2021/09/13 10:29:02;;;;;;;3.97;2.90;;;29.30;75.70;;;;;;5017358;28;20058;-84
2021/09/13 10:31:56;;;;;;;3.85;2.60;;;28.70;76.50;;;;;;5017467;28;20045;-83
2021/09/13 10:34:26;;;;;;;3.67;2.45;;;30.30;74.50;;;;;;5015199;28;20083;-84
2021/09/13 10:37:11;;;;;;;3.17;2.53;;;32.30;70.50;;;;;;5034573;28;20067;-85
2021/09/13 10:39:58;;;;;;;4.25;2.80;;;32.60;67.30;;;;;;5017446;28;20046;-84
2021/09/13 10:42:44;;;;;;;4.25;2.53;;;31.10;69.60;;;;;;5017451;28;20053;-85
2021/09/13 10:45:24;;;;;;;5.88;3.05;;;31.60;69.10;;;;;;5016891;28;20502;-84
2021/09/13 10:48:08;;;;;;;3.47;2.80;;;32.30;69.80;;;;;;5017532;28;20063;-84
2021/09/13 10:50:49;;;;;;;5.55;3.33;;;32.40;68.40;;;;;;5035424;28;20089;-83
2021/09/13 10:53:22;;;;;;;3.25;2.78;;;30.90;72.80;;;;;;5019155;28;20132;-84
2021/09/13 10:56:04;;;;;;;3.40;2.95;;;32.10;69.00;;;;;;5017301;28;20057;-84
2021/09/13 10:58:41;;;;;;;3.10;2.63;;;31.60;69.80;;;;;;5017320;28;20067;-85
2021/09/13 11:01:10;;;;;;;4.38;2.85;;;31.30;68.10;;;;;;5016726;28;20060;-84
2021/09/13 11:03:41;;;;;;;4.35;2.58;;;30.80;70.30;;;;;;5049557;28;20053;-85
2021/09/13 11:06:15;;;;;;;2.58;2.20;;;31.60;66.80;;;;;;5034541;28;20053;-86
2021/09/13 11:08:46;;;;;;;7.85;3.00;;;31.40;65.00;;;;;;5016560;28;20498;-87
2021/09/13 11:11:14;;;;;;;4.40;2.33;;;31.10;67.60;;;;;;5017003;28;20103;-84
2021/09/13 11:13:42;;;;;;;3.75;2.20;;;31.00;68.70;;;;;;5016681;28;20053;-84
2021/09/13 11:16:14;;;;;;;3.03;2.25;;;30.70;68.50;;;;;;5016758;28;20053;-85
2021/09/13 11:18:43;;;;;;;3.63;2.22;;;30.80;66.20;;;;;;5016895;28;20111;-84
2021/09/13 11:21:15;;;;;;;2.55;2.25;;;30.10;67.60;;;;;;5016319;28;20054;-86
2021/09/13 11:23:42;;;;;;;3.35;2.13;;;29.90;68.60;;;;;;5016606;28;20509;-83
2021/09/13 11:26:09;;;;;;;3.88;2.40;;;29.20;71.20;;;;;;5016430;28;20049;-85
2021/09/13 11:29:18;;;;;;;2.90;2.28;;;28.20;71.80;;;;;;5016305;28;20140;-83
2021/09/13 11:31:54;;;;;;;3.65;2.50;;;27.80;74.90;;;;;;4957020;28;20146;-86
2021/09/13 11:34:43;;;;;;;3.60;2.30;;;28.00;75.70;;;;;;4957066;28;20393;-85
2021/09/13 11:37:17;;;;;;;2.22;2.00;;;28.10;74.30;;;;;;5016677;28;20045;-84
2021/09/13 11:40:04;;;;;;;;;;;27.40;75.70;;;;;;5033953;28;20057;-82
2021/09/13 11:42:35;;;;;;;5.60;2.40;;;27.80;75.90;;;;;;5016020;28;20011;-85
2021/09/13 11:45:06;;;;;;;6.57;2.58;;;28.10;76.40;;;;;;5015470;28;20063;-85
2021/09/13 11:47:51;;;;;;;4.40;1.83;;;27.50;75.10;;;;;;5018453;28;20521;-85
2021/09/13 11:50:18;;;;;;;3.83;2.30;;;26.80;76.30;;;;;;5016304;28;20049;-86
2021/09/13 11:52:45;;;;;;;15.00;2.50;;;26.70;76.90;;;;;;5049091;28;20123;-84
2021/09/13 11:55:16;;;;;;;5.45;2.58;;;26.80;79.60;;;;;;5033311;28;20124;-85
2021/09/13 11:57:54;;;;;;;4.40;2.38;;;26.60;77.50;;;;;;5033335;28;20050;-85
2021/09/13 12:00:27;;;;;;;5.13;2.25;;;26.50;77.40;;;;;;5015393;28;20493;-85
2021/09/13 12:03:00;;;;;;;6.18;2.58;;;26.60;80.40;;;;;;5015646;28;20111;-86
2021/09/13 12:05:36;;;;;;;2.58;2.08;;;26.30;79.00;;;;;;5015699;28;20056;-85
2021/09/13 12:08:06;;;;;;;3.97;2.35;;;26.20;78.20;;;;;;5034674;28;20061;-84
2021/09/13 12:10:34;;;;;;;3.60;2.00;;;26.40;79.10;;;;;;5035844;28;20081;-85
2021/09/13 12:13:13;;;;;;;4.03;1.98;;;26.70;78.60;;;;;;5035139;28;20049;-85
2021/09/13 12:15:48;;;;;;;3.72;2.30;;;26.60;78.30;;;;;;5015753;28;20076;-82
2021/09/13 12:18:18;;;;;;;2.28;2.17;;;26.00;78.60;;;;;;5015488;28;20080;-84
2021/09/13 12:20:46;;;;;;;2.35;2.08;;;25.50;79.30;;;;;;5015349;28;20049;-84
2021/09/13 12:23:20;;;;;;;3.55;2.13;;;25.20;83.10;;;;;;5048575;28;20072;-85
2021/09/13 12:25:53;;;;;;;3.17;2.33;;;25.30;83.20;;;;;;5016412;28;20081;-85
2021/09/13 12:28:24;;;;;;;2.20;1.90;;;25.20;83.30;;;;;;5033004;28;20052;-84
2021/09/13 12:30:53;;;;;;;3.58;2.20;;;25.00;84.00;;;;;;5015308;28;20053;-86
2021/09/13 12:33:37;;;;;;;4.10;2.28;;;25.10;85.90;;;;;;5032795;28;20053;-87
2021/09/13 12:36:19;;;;;;;2.10;1.90;;;25.10;83.90;;;;;;5032493;28;20504;-84
2021/09/13 12:38:48;;;;;;;3.97;2.25;;;25.10;88.30;;;;;;5032371;28;20116;-83
2021/09/13 12:41:15;;;;;;;3.03;2.28;;;25.00;88.30;;;;;;5015364;28;20053;-83
2021/09/13 12:43:47;;;;;;;4.03;2.20;;;24.80;86.00;;;;;;5015038;28;20136;-83
2021/09/13 12:46:17;;;;;;;4.65;2.72;;;24.80;86.00;;;;;;5015253;28;20081;-84
2021/09/13 12:48:50;;;;;;;4.50;2.30;;;24.50;85.50;;;;;;5015183;28;20042;-84
2021/09/13 12:51:23;;;;;;;6.10;2.65;;;24.50;86.90;;;;;;5015356;28;20046;-84
2021/09/13 12:54:00;;;;;;;2.72;2.13;;;24.40;87.90;;;;;;5015203;28;20053;-84
2021/09/13 12:56:28;;;;;;;4.03;2.40;;;24.30;86.10;;;;;;5015204;28;20085;-84
2021/09/13 12:59:17;;;;;;;3.90;2.30;;;24.30;88.10;;;;;;5014955;28;20046;-84